Ellsworth, KS (67439)

1:19 AM CST on February 13, 2016 (GMT -0600)
NonFedAWOS | | Change Station
CLOSE
Current Station
Personal Weather Station
Location: Ellsworth, KS
Elevation: 1614 ft
Nearby Weather Stations

Elev 1614 ft 38.75 °N, 98.23 °W | Updated 23 minutes ago

Mostly Cloudy
Mostly Cloudy
27 °F
Feels Like 15 °F
N
15
Wind Variable Wind from ENE
Gusts 0.0 mph

Today
High -- | Low -- °F
--% Chance of Precip.
Yesterday
High -- | Low -- °F
Precip. -- in
Pressure 30.59 in
Visibility 10.0 miles
Clouds Mostly Cloudy 10000 ft
Windchill 15 °F
Dew Point 18 °F
Humidity 68%
Rainfall in
Snow Depth Not available.
7:26 AM 6:07 PM
Waxing Crescent, 28% visible
METAR KSLN 130653Z AUTO 05009KT 10SM BKN100 M03/M11 A3055 RMK AO2 SLP358 T10281106
Pressure 30.59 in
Visibility 10.0 miles
Clouds Mostly Cloudy 10000 ft
Windchill 15 °F
Dew Point 18 °F
Humidity 68%
Rainfall in
Snow Depth Not available.
7:26 AM 6:07 PM
Waxing Crescent, 28% visible
METAR KSLN 130653Z AUTO 05009KT 10SM BKN100 M03/M11 A3055 RMK AO2 SLP358 T10281106

10-Day Weather Forecast

Almanac

Astronomy

Feb. 13, 2016 Rise Set
Actual Time
Civil Twilight
Nautical Twilight
Astronomical Twilight
Moon
Length of Visible Light
Length of Day
Tomorrow will be .
, % of the Moon is Illuminated

Today's Extremes

State Highs State Lows

Community

WunderPhotos

Upload Photos

1,892,526 photos uploaded!

WunderBlog® & News

Nearby

Air Quality

  Air Quality AQ Index Pollutant
Not available.

Snow Depth

Station Depth Elevation

Earthquake Activity

City Distance Mag. Time & Date
Minimum magnitude displayed is 2.5.

Coastal Water Temperatures

Place Temperature

Stations

Nearby Weather Stations

Station Location Temp. Windchill Dew Point Humidity Wind Precip. Elev Updated Type
                   

Watches & Warnings

There are currently no watches in effect.